createdAt,value
2018-10-11T00:01:08.442Z,78.04
2018-10-11T00:03:37.972Z,75.72
2018-10-11T00:06:08.090Z,76.08
2018-10-11T00:08:37.624Z,74.35
2018-10-11T00:11:07.243Z,75.55
2018-10-11T00:13:36.540Z,76.79
2018-10-11T00:16:06.031Z,77.06
2018-10-11T00:18:35.418Z,75.70
2018-10-11T00:21:06.208Z,77.60
2018-10-11T00:23:35.724Z,77.05
2018-10-11T00:26:05.271Z,77.36
2018-10-11T00:28:34.607Z,78.86
2018-10-11T00:31:04.140Z,78.21
2018-10-11T00:33:34.124Z,79.32
2018-10-11T00:36:03.677Z,79.90
2018-10-11T00:38:32.982Z,79.66
2018-10-11T00:41:02.527Z,80.28
2018-10-11T00:43:32.108Z,80.14
2018-10-11T00:46:01.639Z,80.79
2018-10-11T00:48:31.225Z,81.67
2018-10-11T00:51:00.590Z,81.44
2018-10-11T00:53:29.948Z,82.31
2018-10-11T00:55:59.207Z,82.41
2018-10-11T00:58:28.584Z,81.91
2018-10-11T01:00:58.034Z,82.51
2018-10-11T01:03:27.700Z,82.90
2018-10-11T01:05:57.154Z,83.08
2018-10-11T01:08:26.656Z,82.79
2018-10-11T01:10:56.060Z,83.11
2018-10-11T01:13:25.608Z,82.94
2018-10-11T01:15:55.155Z,83.05
2018-10-11T01:18:24.568Z,83.14
2018-10-11T01:20:53.980Z,82.95
2018-10-11T01:23:23.422Z,83.60
2018-10-11T01:25:52.943Z,84.21
2018-10-11T01:28:22.444Z,84.89
2018-10-11T01:30:57.065Z,84.59
2018-10-11T01:33:26.630Z,84.47
2018-10-11T01:35:56.007Z,84.94
2018-10-11T01:38:25.446Z,84.43
2018-10-11T01:40:55.350Z,83.31
2018-10-11T01:43:24.752Z,84.11
2018-10-11T01:45:54.720Z,83.79
2018-10-11T01:48:25.228Z,83.51
2018-10-11T01:50:54.590Z,85.00
2018-10-11T01:53:24.120Z,84.75
2018-10-11T01:55:53.664Z,83.21
2018-10-11T01:58:23.101Z,84.26
2018-10-11T02:00:52.672Z,84.14
2018-10-11T02:03:22.028Z,84.82
2018-10-11T02:05:51.600Z,85.97
2018-10-11T02:08:20.990Z,85.38
2018-10-11T02:10:50.416Z,85.44
2018-10-11T02:13:19.950Z,85.87
2018-10-11T02:15:49.523Z,86.27
2018-10-11T02:18:19.152Z,86.00
2018-10-11T02:20:48.550Z,86.35
2018-10-11T02:23:18.292Z,86.83
2018-10-11T02:25:47.936Z,86.34
2018-10-11T02:28:17.372Z,87.16
2018-10-11T02:30:46.698Z,85.98
2018-10-11T02:33:16.093Z,86.40
2018-10-11T02:35:45.376Z,87.42
2018-10-11T02:38:15.069Z,87.57
2018-10-11T02:40:44.604Z,87.98
2018-10-11T02:43:14.060Z,88.17
2018-10-11T02:45:43.680Z,88.45
2018-10-11T02:48:13.349Z,88.48
2018-10-11T02:50:42.866Z,86.47
2018-10-11T02:53:12.527Z,87.71
2018-10-11T02:55:42.055Z,86.85
2018-10-11T02:58:22.449Z,83.56
2018-10-11T03:00:52.038Z,86.23
2018-10-11T03:03:23.948Z,85.54
2018-10-11T03:05:53.684Z,86.36
2018-10-11T03:08:25.905Z,85.83
2018-10-11T03:10:55.536Z,85.09
2018-10-11T03:13:26.736Z,85.77
2018-10-11T03:15:56.440Z,86.19
2018-10-11T03:18:26.854Z,87.14
2018-10-11T03:20:56.350Z,84.60
2018-10-11T03:23:25.712Z,86.02
2018-10-11T03:25:55.070Z,85.65
2018-10-11T03:28:24.605Z,84.95
2018-10-11T03:30:53.872Z,86.98
2018-10-11T03:33:23.496Z,87.52
2018-10-11T03:35:53.144Z,88.52
2018-10-11T03:38:22.489Z,88.63
2018-10-11T03:40:52.157Z,89.45
2018-10-11T03:43:21.446Z,87.51
2018-10-11T03:45:50.936Z,88.39
2018-10-11T03:48:20.533Z,88.17
2018-10-11T03:50:49.803Z,89.41
2018-10-11T03:53:19.136Z,90.22
2018-10-11T03:55:50.188Z,90.69
2018-10-11T03:58:19.790Z,89.17
2018-10-11T04:00:49.396Z,89.00
2018-10-11T04:03:19.111Z,90.39
2018-10-11T04:05:48.534Z,90.27
2018-10-11T04:08:17.884Z,89.24
2018-10-11T04:10:47.517Z,90.67
2018-10-11T04:13:17.177Z,89.30
2018-10-11T04:15:46.689Z,89.68
2018-10-11T04:18:16.178Z,91.20
2018-10-11T04:20:45.531Z,90.79
2018-10-11T04:23:25.838Z,89.91
2018-10-11T04:25:55.464Z,89.74
2018-10-11T04:28:26.037Z,89.69
2018-10-11T04:30:55.602Z,89.11
2018-10-11T04:33:25.204Z,88.57
2018-10-11T04:35:54.855Z,88.59
2018-10-11T04:38:24.316Z,88.31
2018-10-11T04:40:53.704Z,88.29
2018-10-11T04:43:22.991Z,86.95
2018-10-11T04:45:52.462Z,87.39
2018-10-11T04:48:21.724Z,87.56
2018-10-11T04:50:51.204Z,88.06
2018-10-11T04:53:20.640Z,84.59
2018-10-11T04:55:50.331Z,83.50
2018-10-11T04:58:19.588Z,86.68
2018-10-11T05:00:48.891Z,86.01
2018-10-11T05:03:18.441Z,85.87
2018-10-11T05:05:48.033Z,87.37
2018-10-11T05:08:17.551Z,86.83
2018-10-11T05:10:46.847Z,87.39
2018-10-11T05:13:16.278Z,86.93
2018-10-11T05:15:45.873Z,86.48
2018-10-11T05:18:18.138Z,88.00
2018-10-11T05:20:47.502Z,87.03
2018-10-11T05:23:17.084Z,86.57
2018-10-11T05:25:46.453Z,88.05
2018-10-11T05:28:15.792Z,87.69
2018-10-11T05:30:46.240Z,88.87
2018-10-11T05:33:15.989Z,88.41
2018-10-11T05:35:46.301Z,88.08
2018-10-11T05:38:15.919Z,89.14
2018-10-11T05:40:45.272Z,88.87
2018-10-11T05:43:14.944Z,87.07
2018-10-11T05:46:01.403Z,88.74
2018-10-11T05:48:31.759Z,88.24
2018-10-11T05:51:02.176Z,89.32
2018-10-11T05:53:31.694Z,90.23
2018-10-11T05:56:01.596Z,89.51
2018-10-11T05:58:31.140Z,89.61
2018-10-11T06:01:00.472Z,89.48
2018-10-11T06:03:29.503Z,89.83
2018-10-11T06:05:58.888Z,89.34
2018-10-11T06:08:28.410Z,88.03
2018-10-11T06:10:57.788Z,86.08
2018-10-11T06:13:27.400Z,88.54
2018-10-11T06:15:56.951Z,87.97
2018-10-11T06:18:26.456Z,87.03
2018-10-11T06:20:56.003Z,87.35
2018-10-11T06:23:25.349Z,87.49
2018-10-11T06:25:54.566Z,89.63
2018-10-11T06:28:24.028Z,89.46
2018-10-11T06:30:53.287Z,89.62
2018-10-11T06:33:23.045Z,89.18
2018-10-11T06:35:52.578Z,90.08
2018-10-11T06:38:22.148Z,90.09
2018-10-11T06:40:51.943Z,89.26
2018-10-11T06:43:21.392Z,90.65
2018-10-11T06:45:51.100Z,89.45
2018-10-11T06:48:20.507Z,89.80
2018-10-11T06:50:49.921Z,90.64
2018-10-11T06:53:19.600Z,90.71
2018-10-11T06:55:49.084Z,91.81
2018-10-11T06:58:18.534Z,92.98
2018-10-11T07:00:48.164Z,92.74
2018-10-11T07:03:17.720Z,93.66
2018-10-11T07:05:47.185Z,93.32
2018-10-11T07:08:16.572Z,95.14
2018-10-11T07:10:45.782Z,97.63
2018-10-11T07:13:15.189Z,96.28
2018-10-11T07:15:44.723Z,98.81
2018-10-11T07:18:14.163Z,99.83
2018-10-11T07:20:43.669Z,98.70
2018-10-11T07:23:13.104Z,100.00
2018-10-11T07:25:42.507Z,99.56
2018-10-11T07:28:11.861Z,100.00
2018-10-11T07:30:41.518Z,100.00
2018-10-11T07:33:10.756Z,99.95
2018-10-11T07:35:40.277Z,100.00
2018-10-11T07:38:10.478Z,98.42
2018-10-11T07:40:40.542Z,99.12
2018-10-11T07:43:09.945Z,98.88
2018-10-11T07:45:39.106Z,99.33
2018-10-11T07:48:08.244Z,98.04
2018-10-11T07:50:37.798Z,96.61
2018-10-11T07:53:07.130Z,96.61
2018-10-11T07:55:36.604Z,92.38
2018-10-11T07:58:06.068Z,93.56
2018-10-11T08:00:35.747Z,91.56
2018-10-11T08:03:05.169Z,91.77
2018-10-11T08:05:34.572Z,89.39
2018-10-11T08:08:03.981Z,91.70
2018-10-11T08:10:33.555Z,90.43
2018-10-11T08:13:03.090Z,93.26
2018-10-11T08:15:32.550Z,90.77
2018-10-11T08:18:02.166Z,88.18
2018-10-11T08:20:31.637Z,88.35
2018-10-11T08:23:01.056Z,92.77
2018-10-11T08:25:30.545Z,90.72
2018-10-11T08:27:59.908Z,93.39
2018-10-11T08:30:29.452Z,94.59
2018-10-11T08:32:58.809Z,97.06
2018-10-11T08:35:28.100Z,100.00
2018-10-11T08:37:57.802Z,100.00
2018-10-11T08:40:26.951Z,100.00
2018-10-11T08:42:56.171Z,100.00
2018-10-11T08:45:25.699Z,100.00
2018-10-11T08:47:55.170Z,100.00
2018-10-11T08:50:25.047Z,97.51
2018-10-11T08:52:54.422Z,96.48
2018-10-11T08:55:23.974Z,98.21
2018-10-11T08:57:53.212Z,99.21
2018-10-11T09:00:22.690Z,96.11
2018-10-11T09:02:51.976Z,97.61
2018-10-11T09:05:21.422Z,95.97
2018-10-11T09:07:51.004Z,91.08
2018-10-11T09:10:20.665Z,93.10
2018-10-11T09:12:49.926Z,90.51
2018-10-11T09:15:19.386Z,92.41
2018-10-11T09:17:48.716Z,88.18
2018-10-11T09:20:18.190Z,89.47
2018-10-11T09:22:47.550Z,90.61
2018-10-11T09:25:17.096Z,90.57
2018-10-11T09:27:46.535Z,91.05
2018-10-11T09:30:16.182Z,86.60
2018-10-11T09:32:45.674Z,87.52
2018-10-11T09:35:15.179Z,88.76
2018-10-11T09:37:44.454Z,87.50
2018-10-11T09:40:13.910Z,89.86
2018-10-11T09:42:43.308Z,91.83
2018-10-11T09:45:12.757Z,90.84
2018-10-11T09:47:42.401Z,88.90
2018-10-11T09:50:11.889Z,91.01
2018-10-11T09:52:41.349Z,90.24
2018-10-11T09:55:10.788Z,91.56
2018-10-11T09:57:40.420Z,92.65
2018-10-11T10:00:16.730Z,91.60
2018-10-11T10:02:47.198Z,91.99
2018-10-11T10:05:16.638Z,91.85
2018-10-11T10:07:46.111Z,90.37
2018-10-11T10:10:15.423Z,90.55
2018-10-11T10:12:45.004Z,89.81
2018-10-11T10:15:14.500Z,91.75
2018-10-11T10:17:43.825Z,90.96
2018-10-11T10:20:13.293Z,89.07
2018-10-11T10:22:42.721Z,92.84
2018-10-11T10:25:12.347Z,93.33
2018-10-11T10:27:41.796Z,92.31
2018-10-11T10:30:16.133Z,93.44
2018-10-11T10:32:45.676Z,94.28
2018-10-11T10:35:15.006Z,94.32
2018-10-11T10:37:44.556Z,91.67
2018-10-11T10:40:14.609Z,92.75
2018-10-11T10:42:44.085Z,92.18
2018-10-11T10:45:13.486Z,93.19
2018-10-11T10:47:42.943Z,92.79
2018-10-11T10:50:12.435Z,94.24
2018-10-11T10:52:41.954Z,93.42
2018-10-11T10:55:11.377Z,90.40
2018-10-11T10:57:41.209Z,93.17
2018-10-11T11:00:10.697Z,92.86
2018-10-11T11:02:40.053Z,92.32
2018-10-11T11:05:09.814Z,92.19
2018-10-11T11:07:39.324Z,90.31
2018-10-11T11:10:09.053Z,90.17
2018-10-11T11:12:38.662Z,88.61
2018-10-11T11:15:08.699Z,86.14
2018-10-11T11:17:38.185Z,87.77
2018-10-11T11:20:07.560Z,87.67
2018-10-11T11:22:36.993Z,86.34
2018-10-11T11:25:06.814Z,89.06
2018-10-11T11:27:36.411Z,87.72
2018-10-11T11:30:05.764Z,86.59
2018-10-11T11:32:35.240Z,87.72
2018-10-11T11:35:04.729Z,87.91
2018-10-11T11:37:34.052Z,88.21
2018-10-11T11:40:03.644Z,90.22
2018-10-11T11:42:33.229Z,86.16
2018-10-11T11:45:02.655Z,85.17
2018-10-11T11:47:32.241Z,83.61
2018-10-11T11:50:01.791Z,86.41
2018-10-11T11:52:31.304Z,86.08
2018-10-11T11:55:00.794Z,86.32
2018-10-11T11:57:30.153Z,81.37
2018-10-11T11:59:59.819Z,83.26
2018-10-11T12:02:29.281Z,84.32
2018-10-11T12:04:58.841Z,82.84
2018-10-11T12:07:28.441Z,82.73
2018-10-11T12:09:57.734Z,82.41
2018-10-11T12:13:08.369Z,81.47
2018-10-11T12:15:38.635Z,83.47
2018-10-11T12:18:08.785Z,81.36
2018-10-11T12:20:39.332Z,81.64
2018-10-11T12:23:09.738Z,82.88
2018-10-11T12:25:39.382Z,84.21
2018-10-11T12:28:08.761Z,83.93
2018-10-11T12:30:38.205Z,83.88
2018-10-11T12:33:07.841Z,83.89
2018-10-11T12:35:37.341Z,84.81
2018-10-11T12:38:06.753Z,84.91
2018-10-11T12:40:36.076Z,81.30
2018-10-11T12:43:05.573Z,84.98
2018-10-11T12:45:35.184Z,86.16
2018-10-11T12:48:04.536Z,83.49
2018-10-11T12:50:33.779Z,84.80
2018-10-11T12:53:03.270Z,82.64
2018-10-11T12:55:32.793Z,82.53
2018-10-11T12:58:02.366Z,81.95
2018-10-11T13:00:31.785Z,81.78
2018-10-11T13:03:01.352Z,81.25
2018-10-11T13:05:30.708Z,82.09
2018-10-11T13:08:00.386Z,80.33
2018-10-11T13:10:30.272Z,79.59
2018-10-11T13:13:04.616Z,78.70
2018-10-11T13:15:29.191Z,81.28
2018-10-11T13:17:58.609Z,81.62
2018-10-11T13:20:28.096Z,79.81
2018-10-11T13:22:57.732Z,79.44
2018-10-11T13:25:27.220Z,80.83
2018-10-11T13:27:56.652Z,82.85
2018-10-11T13:30:26.074Z,79.36
2018-10-11T13:32:55.364Z,80.59
2018-10-11T13:35:24.748Z,82.80
2018-10-11T13:37:54.130Z,81.68
2018-10-11T13:40:23.540Z,82.54
2018-10-11T13:42:53.005Z,81.47
2018-10-11T13:45:22.862Z,82.15
2018-10-11T13:47:52.163Z,83.43
2018-10-11T13:50:21.615Z,83.32
2018-10-11T13:52:50.867Z,82.62
2018-10-11T13:55:20.309Z,84.19
2018-10-11T13:57:50.154Z,80.27
2018-10-11T14:00:19.745Z,82.07
2018-10-11T14:02:49.324Z,83.02
2018-10-11T14:05:19.955Z,82.82
2018-10-11T14:07:49.416Z,82.94
2018-10-11T14:10:18.816Z,82.57
2018-10-11T14:12:48.206Z,83.81
2018-10-11T14:15:17.610Z,83.47
2018-10-11T14:17:47.101Z,85.05
2018-10-11T14:20:16.585Z,84.07
2018-10-11T14:22:45.976Z,84.82
2018-10-11T14:25:15.449Z,84.91
2018-10-11T14:27:44.815Z,85.70
2018-10-11T14:30:14.300Z,85.03
2018-10-11T14:32:43.703Z,85.25
2018-10-11T14:35:13.127Z,85.76
2018-10-11T14:37:42.656Z,85.22
2018-10-11T14:40:12.184Z,85.15
2018-10-11T14:42:42.025Z,85.26
2018-10-11T14:45:12.013Z,85.20
2018-10-11T14:47:41.536Z,83.46
2018-10-11T14:50:10.965Z,84.99
2018-10-11T14:52:40.231Z,85.96
2018-10-11T14:55:09.667Z,85.14
2018-10-11T14:57:39.015Z,85.16
2018-10-11T15:00:08.680Z,85.51
2018-10-11T15:02:38.014Z,84.09
2018-10-11T15:05:07.388Z,84.99
2018-10-11T15:07:36.840Z,87.55
2018-10-11T15:10:06.449Z,86.55
2018-10-11T15:12:35.876Z,85.89
2018-10-11T15:15:05.964Z,86.51
2018-10-11T15:17:35.555Z,88.53
2018-10-11T15:20:04.756Z,88.45
2018-10-11T15:22:34.151Z,88.00
2018-10-11T15:25:03.633Z,88.44
2018-10-11T15:27:32.772Z,87.66
2018-10-11T15:30:02.337Z,89.39
2018-10-11T15:32:31.654Z,88.05
2018-10-11T15:35:00.972Z,88.12
2018-10-11T15:37:30.512Z,90.19
2018-10-11T15:39:59.488Z,89.39
2018-10-11T15:42:28.837Z,88.46
2018-10-11T15:44:57.917Z,89.61
2018-10-11T15:47:27.431Z,88.81
2018-10-11T15:49:56.901Z,87.47
2018-10-11T15:52:25.988Z,88.71
2018-10-11T15:54:55.273Z,89.14
2018-10-11T15:57:24.484Z,88.02
2018-10-11T15:59:54.218Z,89.34
2018-10-11T16:02:23.494Z,89.79
2018-10-11T16:04:52.831Z,89.22
2018-10-11T16:07:23.257Z,89.57
2018-10-11T16:09:52.378Z,88.67
2018-10-11T16:12:21.485Z,89.19
2018-10-11T16:14:50.607Z,87.33
2018-10-11T16:17:19.820Z,88.89
2018-10-11T16:19:48.961Z,88.32
2018-10-11T16:22:18.301Z,89.21
2018-10-11T16:24:47.374Z,88.49
2018-10-11T16:27:16.705Z,88.98
2018-10-11T16:29:46.265Z,89.64
2018-10-11T16:32:15.707Z,89.95
2018-10-11T16:34:45.035Z,88.87
2018-10-11T16:37:14.500Z,89.04
2018-10-11T16:39:43.563Z,89.58
2018-10-11T16:42:12.764Z,90.47
2018-10-11T16:44:42.515Z,90.48
2018-10-11T16:47:12.088Z,90.12
2018-10-11T16:49:42.186Z,89.62
2018-10-11T16:52:12.188Z,89.11
2018-10-11T16:54:43.349Z,89.71
2018-10-11T16:57:14.970Z,89.25
2018-10-11T16:59:45.007Z,89.84
2018-10-11T17:02:14.555Z,89.94
2018-10-11T17:04:44.772Z,90.56
2018-10-11T17:07:14.722Z,88.80
2018-10-11T17:09:49.201Z,90.27
2018-10-11T17:12:18.480Z,88.86
2018-10-11T17:14:47.774Z,89.16
2018-10-11T17:17:17.372Z,90.17
2018-10-11T17:19:46.865Z,86.19
2018-10-11T17:22:16.131Z,86.97
2018-10-11T17:24:46.547Z,89.43
2018-10-11T17:27:17.618Z,89.30
2018-10-11T17:29:49.542Z,87.91
2018-10-11T17:32:18.887Z,88.89
2018-10-11T17:34:48.488Z,89.22
2018-10-11T17:37:17.933Z,89.13
2018-10-11T17:39:47.705Z,90.08
2018-10-11T17:42:16.926Z,89.37
2018-10-11T17:44:46.111Z,88.21
2018-10-11T17:47:15.108Z,89.07
2018-10-11T17:49:44.188Z,88.88
2018-10-11T17:52:13.179Z,87.17
2018-10-11T17:54:47.325Z,89.55
2018-10-11T17:57:16.940Z,88.57
2018-10-11T17:59:46.547Z,89.58
2018-10-11T18:02:15.894Z,88.32
2018-10-11T18:04:45.206Z,88.25
2018-10-11T18:07:14.736Z,88.49
2018-10-11T18:09:44.149Z,89.81
2018-10-11T18:12:13.782Z,87.92
2018-10-11T18:14:42.833Z,87.67
2018-10-11T18:17:11.933Z,87.62
2018-10-11T18:19:41.477Z,87.67
2018-10-11T18:22:11.004Z,87.71
2018-10-11T18:24:40.058Z,86.49
2018-10-11T18:27:10.136Z,88.96
2018-10-11T18:29:39.261Z,89.18
2018-10-11T18:32:08.580Z,88.94
2018-10-11T18:34:37.994Z,88.90
2018-10-11T18:37:07.564Z,87.70
2018-10-11T18:39:37.520Z,86.18
2018-10-11T18:42:06.701Z,85.78
2018-10-11T18:44:36.249Z,86.88
2018-10-11T18:47:05.652Z,87.39
2018-10-11T18:49:35.117Z,86.94
2018-10-11T18:52:04.493Z,87.26
2018-10-11T18:54:33.838Z,87.74
2018-10-11T18:57:02.944Z,85.61
2018-10-11T18:59:32.420Z,85.89
2018-10-11T19:02:01.836Z,84.11
2018-10-11T19:04:31.272Z,83.75
2018-10-11T19:07:00.740Z,84.83
2018-10-11T19:09:30.058Z,84.98
2018-10-11T19:11:59.572Z,85.39
2018-10-11T19:14:29.123Z,85.11
2018-10-11T19:16:58.711Z,83.02
2018-10-11T19:19:28.083Z,83.67
2018-10-11T19:21:57.658Z,84.00
2018-10-11T19:24:27.099Z,84.80
2018-10-11T19:26:56.502Z,84.93
2018-10-11T19:29:26.065Z,83.18
2018-10-11T19:31:55.581Z,83.51
2018-10-11T19:34:24.896Z,83.81
2018-10-11T19:36:54.240Z,84.60
2018-10-11T19:39:23.586Z,84.91
2018-10-11T19:41:53.397Z,83.64
2018-10-11T19:44:22.764Z,83.45
2018-10-11T19:46:53.454Z,83.25
2018-10-11T19:49:22.833Z,84.30
2018-10-11T19:51:52.450Z,85.58
2018-10-11T19:54:22.102Z,84.99
2018-10-11T19:56:51.905Z,82.14
2018-10-11T19:59:21.204Z,84.91
2018-10-11T20:01:50.972Z,83.38
2018-10-11T20:04:20.280Z,83.75
2018-10-11T20:06:49.700Z,84.33
2018-10-11T20:09:19.189Z,81.97
2018-10-11T20:11:48.467Z,82.98
2018-10-11T20:14:17.863Z,82.04
2018-10-11T20:16:47.220Z,80.19
2018-10-11T20:19:16.576Z,79.35
2018-10-11T20:21:46.276Z,78.31
2018-10-11T20:24:15.860Z,79.24
2018-10-11T20:26:45.301Z,77.07
2018-10-11T20:29:14.861Z,78.48
2018-10-11T20:31:44.242Z,78.23
2018-10-11T20:34:13.448Z,78.47
2018-10-11T20:36:42.752Z,79.37
2018-10-11T20:39:12.022Z,78.33
2018-10-11T20:41:41.375Z,78.97
2018-10-11T20:44:10.785Z,79.39
2018-10-11T20:46:39.930Z,78.05
2018-10-11T20:49:09.479Z,78.82
2018-10-11T20:51:39.098Z,79.36
2018-10-11T20:54:08.560Z,77.79
2018-10-11T20:56:38.083Z,79.34
2018-10-11T20:59:07.784Z,79.42
2018-10-11T21:01:38.148Z,78.42
2018-10-11T21:04:07.561Z,79.64
2018-10-11T21:06:36.988Z,79.23
2018-10-11T21:09:08.778Z,80.18
2018-10-11T21:11:37.984Z,79.54
2018-10-11T21:14:07.323Z,81.15
2018-10-11T21:16:36.965Z,81.24
2018-10-11T21:19:06.716Z,79.69
2018-10-11T21:21:36.363Z,81.36
2018-10-11T21:24:05.729Z,79.04
2018-10-11T21:26:35.036Z,79.54
2018-10-11T21:29:04.691Z,79.35
2018-10-11T21:31:34.208Z,81.22
2018-10-11T21:34:03.738Z,80.06
2018-10-11T21:36:32.978Z,78.97
2018-10-11T21:39:02.280Z,79.68
2018-10-11T21:41:32.042Z,80.70
2018-10-11T21:44:01.603Z,81.21
2018-10-11T21:46:31.198Z,81.00
2018-10-11T21:49:00.543Z,80.61
2018-10-11T21:51:29.958Z,80.42
2018-10-11T21:53:59.557Z,82.59
2018-10-11T21:56:29.090Z,81.84
2018-10-11T21:58:58.602Z,82.94
2018-10-11T22:01:28.030Z,84.06
2018-10-11T22:03:57.628Z,83.82
2018-10-11T22:06:26.916Z,85.02
2018-10-11T22:08:56.406Z,83.42
2018-10-11T22:11:25.733Z,84.30
2018-10-11T22:13:55.516Z,83.38
2018-10-11T22:16:25.121Z,84.01
2018-10-11T22:18:54.553Z,86.07
2018-10-11T22:21:24.070Z,86.29
2018-10-11T22:23:53.591Z,86.15
2018-10-11T22:26:23.250Z,85.89
2018-10-11T22:28:52.572Z,84.83
2018-10-11T22:31:22.056Z,86.41
2018-10-11T22:33:51.645Z,88.63
2018-10-11T22:36:21.102Z,86.80
2018-10-11T22:38:50.840Z,89.47
2018-10-11T22:41:20.354Z,90.10
2018-10-11T22:43:49.728Z,91.36
2018-10-11T22:46:18.966Z,89.61
2018-10-11T22:48:48.701Z,89.62
2018-10-11T22:51:19.392Z,90.78
2018-10-11T22:53:48.878Z,91.75
2018-10-11T22:56:21.284Z,91.05
2018-10-11T22:58:52.028Z,92.42
2018-10-11T23:01:21.350Z,89.38
2018-10-11T23:03:50.484Z,93.07
2018-10-11T23:06:20.254Z,91.91
2018-10-11T23:08:49.755Z,94.03
2018-10-11T23:11:19.022Z,92.74
2018-10-11T23:13:48.468Z,95.32
2018-10-11T23:16:18.042Z,96.58
2018-10-11T23:18:47.500Z,96.61
2018-10-11T23:21:16.810Z,96.20
2018-10-11T23:23:46.378Z,96.18
2018-10-11T23:26:15.695Z,95.51
2018-10-11T23:28:45.080Z,96.32
2018-10-11T23:31:14.694Z,97.80
2018-10-11T23:33:44.239Z,98.10
2018-10-11T23:36:14.026Z,97.62
2018-10-11T23:38:43.814Z,97.56
2018-10-11T23:41:13.216Z,94.41
2018-10-11T23:43:42.852Z,98.17
2018-10-11T23:46:12.425Z,99.49
2018-10-11T23:48:41.947Z,98.70
2018-10-11T23:51:11.568Z,99.62
2018-10-11T23:53:41.150Z,100.00
2018-10-11T23:56:10.782Z,99.08
2018-10-11T23:58:40.237Z,99.05
